createdAt,value
2018-03-31T00:00:05.375Z,99951.77
2018-03-31T00:02:33.346Z,99953.83
2018-03-31T00:05:01.275Z,99951.16
2018-03-31T00:07:29.280Z,99951.39
2018-03-31T00:09:57.241Z,99951.44
2018-03-31T00:12:25.210Z,99963.19
2018-03-31T00:14:53.162Z,99949.06
2018-03-31T00:17:21.098Z,99947.72
2018-03-31T00:19:49.109Z,99946.12
2018-03-31T00:22:22.591Z,99945.48
2018-03-31T00:24:50.567Z,99912.11
2018-03-31T00:27:18.549Z,99916.41
2018-03-31T00:29:46.517Z,99914.10
2018-03-31T00:32:14.473Z,99906.73
2018-03-31T00:34:42.430Z,99891.98
2018-03-31T00:37:10.402Z,99900.59
2018-03-31T00:39:38.363Z,99906.14
2018-03-31T00:42:06.298Z,99900.70
2018-03-31T00:44:34.281Z,99892.94
2018-03-31T00:47:02.210Z,99888.50
2018-03-31T00:49:30.222Z,99890.29
2018-03-31T00:51:58.167Z,99886.80
2018-03-31T00:54:26.118Z,99882.66
2018-03-31T00:56:54.118Z,99884.68
2018-03-31T00:59:22.042Z,99890.29
2018-03-31T01:01:50.014Z,99886.75
2018-03-31T01:04:18.007Z,99886.44
2018-03-31T01:06:45.991Z,99887.14
2018-03-31T01:09:13.930Z,99886.14
2018-03-31T01:11:41.858Z,99877.70
2018-03-31T01:14:09.836Z,99876.23
2018-03-31T01:16:37.834Z,99869.56
2018-03-31T01:19:05.790Z,99884.13
2018-03-31T01:21:33.797Z,99885.58
2018-03-31T01:24:01.770Z,99886.17
2018-03-31T01:26:29.763Z,99880.25
2018-03-31T01:28:57.754Z,99890.09
2018-03-31T01:31:25.753Z,99888.31
2018-03-31T01:33:53.760Z,99897.52
2018-03-31T01:36:21.708Z,99893.25
2018-03-31T01:38:49.670Z,99904.47
2018-03-31T01:41:17.689Z,99906.95
2018-03-31T01:43:45.702Z,99907.66
2018-03-31T01:46:13.678Z,99895.58
2018-03-31T01:48:41.639Z,99897.52
2018-03-31T01:51:09.622Z,99893.30
2018-03-31T01:53:37.614Z,99896.06
2018-03-31T01:56:05.610Z,99898.34
2018-03-31T01:58:33.553Z,99893.72
2018-03-31T02:01:01.534Z,99884.53
2018-03-31T02:03:29.494Z,99893.59
2018-03-31T02:05:57.493Z,99905.70
2018-03-31T02:08:25.478Z,99918.00
2018-03-31T02:10:53.482Z,99917.72
2018-03-31T02:13:21.434Z,99916.71
2018-03-31T02:15:49.452Z,99917.87
2018-03-31T02:18:17.401Z,99914.98
2018-03-31T02:20:45.379Z,99913.97
2018-03-31T02:23:13.379Z,99910.02
2018-03-31T02:25:41.350Z,99911.35
2018-03-31T02:28:09.354Z,99916.92
2018-03-31T02:30:37.333Z,99909.16
2018-03-31T02:33:05.308Z,99913.59
2018-03-31T02:35:33.278Z,99907.55
2018-03-31T02:38:01.270Z,99908.38
2018-03-31T02:40:29.199Z,99900.47
2018-03-31T02:42:57.145Z,99903.00
2018-03-31T02:45:25.118Z,99901.77
2018-03-31T02:47:53.071Z,99897.81
2018-03-31T02:50:21.045Z,99892.65
2018-03-31T02:52:49.016Z,99887.45
2018-03-31T02:55:16.999Z,99892.14
2018-03-31T02:57:44.990Z,99894.02
2018-03-31T03:00:13.558Z,99889.77
2018-03-31T03:02:41.466Z,99883.66
2018-03-31T03:05:09.374Z,99889.83
2018-03-31T03:07:37.335Z,99884.09
2018-03-31T03:10:05.262Z,99899.10
2018-03-31T03:12:33.222Z,99908.45
2018-03-31T03:15:01.157Z,99897.00
2018-03-31T03:17:28.830Z,99897.41
2018-03-31T03:19:56.493Z,99894.80
2018-03-31T03:22:24.136Z,99880.58
2018-03-31T03:24:51.808Z,99877.45
2018-03-31T03:27:19.450Z,99870.38
2018-03-31T03:29:47.113Z,99866.23
2018-03-31T03:32:14.737Z,99872.05
2018-03-31T03:34:42.407Z,99872.27
2018-03-31T03:37:10.089Z,99874.69
2018-03-31T03:39:37.736Z,99865.87
2018-03-31T03:42:05.402Z,99859.64
2018-03-31T03:44:33.065Z,99866.52
2018-03-31T03:47:00.731Z,99867.94
2018-03-31T03:49:28.359Z,99860.92
2018-03-31T03:51:55.996Z,99859.85
2018-03-31T03:54:23.671Z,99859.76
2018-03-31T03:56:51.341Z,99858.22
2018-03-31T03:59:18.982Z,99850.68
2018-03-31T04:01:46.646Z,99854.38
2018-03-31T04:04:14.306Z,99853.41
2018-03-31T04:06:41.938Z,99844.42
2018-03-31T04:09:09.606Z,99871.13
2018-03-31T04:11:37.239Z,99863.42
2018-03-31T04:14:04.902Z,99863.14
2018-03-31T04:16:32.540Z,99859.35
2018-03-31T04:19:00.221Z,99864.50
2018-03-31T04:21:27.894Z,99856.96
2018-03-31T04:23:55.526Z,99855.56
2018-03-31T04:26:23.214Z,99874.68
2018-03-31T04:28:50.845Z,99870.63
2018-03-31T04:31:18.474Z,99865.98
2018-03-31T04:33:46.142Z,99870.16
2018-03-31T04:36:13.810Z,99881.50
2018-03-31T04:38:41.474Z,99883.34
2018-03-31T04:41:09.102Z,99879.55
2018-03-31T04:43:36.810Z,99854.48
2018-03-31T04:46:04.482Z,99852.17
2018-03-31T04:48:32.113Z,99863.31
2018-03-31T04:50:59.761Z,99853.84
2018-03-31T04:53:27.445Z,99860.05
2018-03-31T04:55:55.111Z,99861.64
2018-03-31T04:58:22.778Z,99852.09
2018-03-31T05:00:50.413Z,99860.44
2018-03-31T05:03:18.120Z,99872.94
2018-03-31T05:05:45.822Z,99881.10
2018-03-31T05:08:13.462Z,99879.54
2018-03-31T05:10:41.134Z,99881.97
2018-03-31T05:13:08.827Z,99887.39
2018-03-31T05:15:36.487Z,99881.16
2018-03-31T05:18:04.162Z,99887.28
2018-03-31T05:20:31.802Z,99895.78
2018-03-31T05:22:59.474Z,99884.42
2018-03-31T05:25:27.154Z,99884.64
2018-03-31T05:27:54.858Z,99873.67
2018-03-31T05:30:22.499Z,99880.72
2018-03-31T05:32:50.130Z,99874.28
2018-03-31T05:35:17.812Z,99877.24
2018-03-31T05:37:45.443Z,99884.09
2018-03-31T05:40:13.158Z,99891.73
2018-03-31T05:42:40.794Z,99887.39
2018-03-31T05:45:08.487Z,99882.78
2018-03-31T05:47:36.123Z,99868.62
2018-03-31T05:50:03.762Z,99880.88
2018-03-31T05:52:31.435Z,99885.93
2018-03-31T05:54:59.101Z,99886.94
2018-03-31T05:57:26.737Z,99896.16
2018-03-31T05:59:54.419Z,99896.06
2018-03-31T06:02:22.061Z,99906.44
2018-03-31T06:04:49.764Z,99904.86
2018-03-31T06:07:17.397Z,99916.20
2018-03-31T06:09:45.034Z,99915.19
2018-03-31T06:12:12.821Z,99916.19
2018-03-31T06:14:40.480Z,99913.50
2018-03-31T06:17:08.223Z,99917.19
2018-03-31T06:19:35.942Z,99914.04
2018-03-31T06:22:03.575Z,99918.11
2018-03-31T06:24:31.214Z,99914.39
2018-03-31T06:26:58.899Z,99914.30
2018-03-31T06:29:26.570Z,99915.06
2018-03-31T06:31:54.225Z,99914.69
2018-03-31T06:34:21.898Z,99927.72
2018-03-31T06:36:49.765Z,99944.39
2018-03-31T06:39:17.528Z,99951.69
2018-03-31T06:41:45.178Z,99945.80
2018-03-31T06:44:12.839Z,99951.38
2018-03-31T06:46:40.613Z,99959.47
2018-03-31T06:49:08.282Z,99958.91
2018-03-31T06:51:36.096Z,99963.16
2018-03-31T06:54:03.814Z,99955.89
2018-03-31T06:56:31.538Z,99950.55
2018-03-31T06:58:59.240Z,99947.55
2018-03-31T07:01:27.007Z,99944.23
2018-03-31T07:03:54.770Z,99927.48
2018-03-31T07:06:22.402Z,99935.21
2018-03-31T07:08:50.117Z,99920.26
2018-03-31T07:11:17.756Z,99903.45
2018-03-31T07:13:45.526Z,99913.91
2018-03-31T07:16:13.203Z,99911.97
2018-03-31T07:18:40.842Z,99900.65
2018-03-31T07:21:08.518Z,99911.27
2018-03-31T07:23:36.190Z,99904.17
2018-03-31T07:26:03.862Z,99917.47
2018-03-31T07:28:31.498Z,99921.10
2018-03-31T07:30:59.172Z,99912.54
2018-03-31T07:33:26.936Z,99913.80
2018-03-31T07:35:54.694Z,99930.84
2018-03-31T07:38:22.459Z,99925.16
2018-03-31T07:40:50.236Z,99925.20
2018-03-31T07:43:17.915Z,99917.34
2018-03-31T07:45:45.655Z,99924.34
2018-03-31T07:48:13.590Z,99930.19
2018-03-31T07:50:41.505Z,99925.45
2018-03-31T07:53:09.195Z,99929.78
2018-03-31T07:55:37.038Z,99925.70
2018-03-31T07:58:04.692Z,99916.92
2018-03-31T08:00:32.463Z,99908.27
2018-03-31T08:03:00.119Z,99900.13
2018-03-31T08:05:27.808Z,99898.23
2018-03-31T08:07:55.485Z,99897.55
2018-03-31T08:10:23.137Z,99903.41
2018-03-31T08:12:50.888Z,99892.91
2018-03-31T08:15:18.648Z,99898.98
2018-03-31T08:17:46.420Z,99889.20
2018-03-31T08:20:14.123Z,99890.64
2018-03-31T08:22:41.843Z,99892.34
2018-03-31T08:25:09.507Z,99871.70
2018-03-31T08:27:37.267Z,99865.59
2018-03-31T08:30:05.038Z,99869.02
2018-03-31T08:32:32.809Z,99871.36
2018-03-31T08:35:00.470Z,99868.70
2018-03-31T08:37:28.237Z,99848.77
2018-03-31T08:39:55.999Z,99859.53
2018-03-31T08:42:23.674Z,99855.53
2018-03-31T08:44:51.332Z,99862.66
2018-03-31T08:47:18.986Z,99858.00
2018-03-31T08:49:46.659Z,99846.63
2018-03-31T08:52:14.419Z,99846.78
2018-03-31T08:54:42.094Z,99843.89
2018-03-31T08:57:09.729Z,99838.42
2018-03-31T08:59:37.620Z,99833.73
2018-03-31T09:02:05.489Z,99821.03
2018-03-31T09:04:33.349Z,99828.16
2018-03-31T09:07:01.002Z,99823.38
2018-03-31T09:09:28.771Z,99805.95
2018-03-31T09:11:56.651Z,99813.58
2018-03-31T09:14:24.320Z,99805.36
2018-03-31T09:16:51.972Z,99812.96
2018-03-31T09:19:19.803Z,99818.17
2018-03-31T09:21:47.499Z,99808.83
2018-03-31T09:24:15.180Z,99801.59
2018-03-31T09:26:42.941Z,99789.52
2018-03-31T09:29:10.806Z,99784.88
2018-03-31T09:31:38.467Z,99772.28
2018-03-31T09:34:06.236Z,99785.14
2018-03-31T09:36:34.091Z,99789.27
2018-03-31T09:39:01.836Z,99790.09
2018-03-31T09:41:29.519Z,99777.62
2018-03-31T09:43:57.286Z,99773.78
2018-03-31T09:46:25.061Z,99772.82
2018-03-31T09:48:52.718Z,99775.19
2018-03-31T09:51:20.488Z,99772.78
2018-03-31T09:53:48.138Z,99766.21
2018-03-31T09:56:15.815Z,99770.42
2018-03-31T09:58:43.585Z,99773.85
2018-03-31T10:01:11.244Z,99770.56
2018-03-31T10:03:38.914Z,99770.73
2018-03-31T10:06:06.673Z,99763.16
2018-03-31T10:08:34.314Z,99752.59
2018-03-31T10:11:02.104Z,99750.83
2018-03-31T10:13:29.858Z,99753.73
2018-03-31T10:15:57.542Z,99754.78
2018-03-31T10:18:25.400Z,99738.45
2018-03-31T10:20:53.164Z,99739.41
2018-03-31T10:23:21.035Z,99735.72
2018-03-31T10:25:48.747Z,99729.66
2018-03-31T10:28:16.462Z,99712.56
2018-03-31T10:30:44.110Z,99696.67
2018-03-31T10:33:11.896Z,99684.05
2018-03-31T10:35:39.535Z,99681.36
2018-03-31T10:38:07.428Z,99671.13
2018-03-31T10:40:35.171Z,99663.75
2018-03-31T10:43:02.963Z,99662.60
2018-03-31T10:45:30.718Z,99668.52
2018-03-31T10:47:58.418Z,99663.66
2018-03-31T10:50:26.176Z,99646.20
2018-03-31T10:52:54.025Z,99649.48
2018-03-31T10:55:21.684Z,99641.13
2018-03-31T10:57:49.318Z,99645.13
2018-03-31T11:00:17.119Z,99646.67
2018-03-31T11:02:44.983Z,99632.98
2018-03-31T11:05:12.753Z,99643.02
2018-03-31T11:07:40.607Z,99641.02
2018-03-31T11:10:08.280Z,99637.91
2018-03-31T11:12:36.109Z,99632.72
2018-03-31T11:15:03.802Z,99617.45
2018-03-31T11:17:31.474Z,99620.27
2018-03-31T11:19:59.308Z,99620.18
2018-03-31T11:22:26.998Z,99613.66
2018-03-31T11:24:54.841Z,99604.88
2018-03-31T11:27:22.540Z,99621.66
2018-03-31T11:29:50.226Z,99602.66
2018-03-31T11:32:17.883Z,99617.74
2018-03-31T11:34:45.631Z,99618.14
2018-03-31T11:37:13.315Z,99617.16
2018-03-31T11:39:41.042Z,99607.88
2018-03-31T11:42:08.714Z,99606.23
2018-03-31T11:44:36.381Z,99609.30
2018-03-31T11:47:04.152Z,99597.36
2018-03-31T11:49:31.913Z,99589.60
2018-03-31T11:51:59.682Z,99599.27
2018-03-31T11:54:27.326Z,99588.77
2018-03-31T11:56:55.054Z,99598.89
2018-03-31T11:59:22.772Z,99593.84
2018-03-31T12:01:50.540Z,99603.55
2018-03-31T12:04:18.407Z,99597.61
2018-03-31T12:06:46.376Z,99607.45
2018-03-31T12:09:14.031Z,99604.99
2018-03-31T12:11:41.828Z,99595.28
2018-03-31T12:14:09.668Z,99588.45
2018-03-31T12:16:37.411Z,99586.68
2018-03-31T12:19:05.211Z,99595.70
2018-03-31T12:21:32.922Z,99586.66
2018-03-31T12:24:00.614Z,99588.46
2018-03-31T12:26:28.501Z,99570.25
2018-03-31T12:28:56.181Z,99573.13
2018-03-31T12:31:24.032Z,99558.20
2018-03-31T12:33:51.691Z,99539.16
2018-03-31T12:36:19.463Z,99540.26
2018-03-31T12:38:47.124Z,99528.17
2018-03-31T12:41:14.982Z,99523.50
2018-03-31T12:43:42.657Z,99507.41
2018-03-31T12:46:10.414Z,99505.59
2018-03-31T12:48:38.050Z,99491.25
2018-03-31T12:51:05.948Z,99484.45
2018-03-31T12:53:33.582Z,99473.88
2018-03-31T12:56:01.482Z,99469.08
2018-03-31T12:58:29.315Z,99465.00
2018-03-31T13:00:57.117Z,99464.89
2018-03-31T13:03:24.810Z,99451.97
2018-03-31T13:05:52.445Z,99443.56
2018-03-31T13:08:20.207Z,99433.48
2018-03-31T13:10:47.980Z,99435.58
2018-03-31T13:13:15.754Z,99434.11
2018-03-31T13:15:43.506Z,99426.24
2018-03-31T13:18:11.266Z,99415.79
2018-03-31T13:20:38.894Z,99411.44
2018-03-31T13:23:06.558Z,99412.73
2018-03-31T13:25:34.241Z,99399.86
2018-03-31T13:28:02.023Z,99395.89
2018-03-31T13:30:29.654Z,99411.72
2018-03-31T13:32:57.375Z,99406.06
2018-03-31T13:35:25.118Z,99391.27
2018-03-31T13:37:52.887Z,99384.36
2018-03-31T13:40:20.530Z,99382.74
2018-03-31T13:42:48.315Z,99365.28
2018-03-31T13:45:16.081Z,99370.88
2018-03-31T13:47:43.840Z,99374.98
2018-03-31T13:50:11.530Z,99356.11
2018-03-31T13:52:39.198Z,99361.52
2018-03-31T13:55:06.929Z,99376.71
2018-03-31T13:57:34.758Z,99367.12
2018-03-31T14:00:02.390Z,99361.77
2018-03-31T14:02:30.152Z,99356.68
2018-03-31T14:04:57.786Z,99356.73
2018-03-31T14:07:25.453Z,99364.55
2018-03-31T14:09:53.191Z,99351.28
2018-03-31T14:12:20.867Z,99355.83
2018-03-31T14:14:48.545Z,99341.69
2018-03-31T14:17:16.215Z,99340.84
2018-03-31T14:19:43.868Z,99341.45
2018-03-31T14:22:11.630Z,99336.05
2018-03-31T14:24:39.282Z,99316.54
2018-03-31T14:27:07.062Z,99325.40
2018-03-31T14:29:34.755Z,99320.89
2018-03-31T14:32:02.492Z,99311.42
2018-03-31T14:34:30.250Z,99323.55
2018-03-31T14:36:57.918Z,99313.80
2018-03-31T14:39:25.688Z,99298.84
2018-03-31T14:41:53.467Z,99301.00
2018-03-31T14:44:21.098Z,99287.91
2018-03-31T14:46:48.876Z,99293.48
2018-03-31T14:49:16.545Z,99285.42
2018-03-31T14:51:44.210Z,99285.34
2018-03-31T14:54:11.880Z,99273.34
2018-03-31T14:56:39.514Z,99279.59
2018-03-31T14:59:07.298Z,99292.13
2018-03-31T15:01:34.961Z,99276.31
2018-03-31T15:04:02.632Z,99266.49
2018-03-31T15:06:30.320Z,99297.40
2018-03-31T15:08:57.969Z,99283.66
2018-03-31T15:11:25.657Z,99265.33
2018-03-31T15:13:53.334Z,99263.15
2018-03-31T15:16:21.049Z,99257.15
2018-03-31T15:18:48.678Z,99258.36
2018-03-31T15:21:16.345Z,99249.17
2018-03-31T15:23:44.015Z,99248.61
2018-03-31T15:26:11.698Z,99235.88
2018-03-31T15:28:39.383Z,99239.63
2018-03-31T15:31:07.005Z,99226.41
2018-03-31T15:33:34.678Z,99224.24
2018-03-31T15:36:02.352Z,99234.59
2018-03-31T15:38:30.882Z,99233.99
2018-03-31T15:40:58.550Z,99229.52
2018-03-31T15:43:26.218Z,99225.00
2018-03-31T15:45:53.884Z,99214.78
2018-03-31T15:48:21.518Z,99222.52
2018-03-31T15:50:49.198Z,99230.56
2018-03-31T15:53:16.834Z,99213.57
2018-03-31T15:55:44.471Z,99220.74
2018-03-31T15:58:12.145Z,99218.97
2018-03-31T16:00:39.781Z,99216.93
2018-03-31T16:03:07.450Z,99201.78
2018-03-31T16:05:35.078Z,99209.77
2018-03-31T16:08:02.758Z,99195.78
2018-03-31T16:10:30.390Z,99192.72
2018-03-31T16:12:58.025Z,99191.15
2018-03-31T16:15:25.694Z,99190.05
2018-03-31T16:17:53.361Z,99176.11
2018-03-31T16:20:21.026Z,99178.44
2018-03-31T16:22:48.681Z,99169.77
2018-03-31T16:25:16.350Z,99159.06
2018-03-31T16:27:43.990Z,99155.70
2018-03-31T16:30:11.658Z,99144.86
2018-03-31T16:32:39.325Z,99136.45
2018-03-31T16:35:07.000Z,99128.70
2018-03-31T16:37:34.668Z,99127.09
2018-03-31T16:40:02.334Z,99132.36
2018-03-31T16:42:30.018Z,99144.84
2018-03-31T16:44:57.686Z,99144.69
2018-03-31T16:47:25.350Z,99146.38
2018-03-31T16:49:53.026Z,99146.80
2018-03-31T16:52:20.673Z,99140.67
2018-03-31T16:54:48.362Z,99157.31
2018-03-31T16:57:15.998Z,99159.41
2018-03-31T16:59:43.674Z,99152.36
2018-03-31T17:02:11.305Z,99148.58
2018-03-31T17:04:38.948Z,99148.15
2018-03-31T17:07:06.626Z,99145.19
2018-03-31T17:09:34.254Z,99160.20
2018-03-31T17:12:01.886Z,99166.34
2018-03-31T17:14:29.563Z,99152.31
2018-03-31T17:16:57.291Z,99152.73
2018-03-31T17:19:24.926Z,99163.91
2018-03-31T17:21:52.607Z,99149.33
2018-03-31T17:24:20.243Z,99147.96
2018-03-31T17:26:47.918Z,99141.31
2018-03-31T17:29:15.550Z,99136.04
2018-03-31T17:31:43.183Z,99134.55
2018-03-31T17:34:10.862Z,99118.59
2018-03-31T17:36:38.562Z,99110.56
2018-03-31T17:39:06.237Z,99106.28
2018-03-31T17:41:33.867Z,99116.89
2018-03-31T17:44:01.533Z,99120.45
2018-03-31T17:46:29.167Z,99128.75
2018-03-31T17:48:56.802Z,99130.39
2018-03-31T17:51:24.473Z,99136.67
2018-03-31T17:53:52.152Z,99141.19
2018-03-31T17:56:19.788Z,99136.14
2018-03-31T17:58:47.468Z,99127.44
2018-03-31T18:01:15.123Z,99123.91
2018-03-31T18:03:42.805Z,99143.38
2018-03-31T18:06:10.485Z,99149.51
2018-03-31T18:08:38.122Z,99138.48
2018-03-31T18:11:05.794Z,99140.37
2018-03-31T18:13:33.462Z,99129.19
2018-03-31T18:16:01.108Z,99130.70
2018-03-31T18:18:28.802Z,99148.67
2018-03-31T18:20:56.430Z,99150.30
2018-03-31T18:23:24.070Z,99141.58
2018-03-31T18:25:51.742Z,99147.70
2018-03-31T18:28:19.408Z,99145.13
2018-03-31T18:30:47.042Z,99138.88
2018-03-31T18:33:14.732Z,99132.99
2018-03-31T18:35:42.369Z,99139.39
2018-03-31T18:38:10.034Z,99140.75
2018-03-31T18:40:37.662Z,99127.81
2018-03-31T18:43:05.299Z,99119.38
2018-03-31T18:45:32.976Z,99116.66
2018-03-31T18:48:00.624Z,99113.23
2018-03-31T18:50:28.295Z,99098.53
2018-03-31T18:52:55.934Z,99091.59
2018-03-31T18:55:23.614Z,99095.97
2018-03-31T18:57:51.250Z,99099.23
2018-03-31T19:00:18.880Z,99093.38
2018-03-31T19:02:46.557Z,99077.58
2018-03-31T19:05:14.230Z,99079.08
2018-03-31T19:07:41.863Z,99077.87
2018-03-31T19:10:09.536Z,99098.54
2018-03-31T19:12:37.206Z,99082.06
2018-03-31T19:15:04.837Z,99048.05
2018-03-31T19:17:32.565Z,99045.06
2018-03-31T19:20:00.194Z,99042.75
2018-03-31T19:22:27.822Z,99049.27
2018-03-31T19:25:00.910Z,99039.20
2018-03-31T19:27:28.597Z,99046.55
2018-03-31T19:29:56.252Z,99024.25
2018-03-31T19:32:23.917Z,99030.48
2018-03-31T19:34:51.547Z,99020.28
2018-03-31T19:37:19.222Z,99008.17
2018-03-31T19:39:50.776Z,98997.69
2018-03-31T19:42:18.459Z,98988.29
2018-03-31T19:44:46.702Z,98974.00
2018-03-31T19:47:14.374Z,98979.06
2018-03-31T19:49:42.006Z,98985.05
2018-03-31T19:52:09.638Z,98952.11
2018-03-31T19:54:37.306Z,98954.97
2018-03-31T19:57:04.974Z,98964.91
2018-03-31T19:59:32.611Z,98967.23
2018-03-31T20:02:00.380Z,98967.62
2018-03-31T20:04:28.043Z,98962.31
2018-03-31T20:06:55.678Z,98976.75
2018-03-31T20:09:23.393Z,98972.50
2018-03-31T20:11:51.064Z,98963.94
2018-03-31T20:14:18.737Z,98970.34
2018-03-31T20:16:46.371Z,98966.41
2018-03-31T20:19:14.046Z,98939.19
2018-03-31T20:21:41.684Z,98951.30
2018-03-31T20:24:09.322Z,98951.97
2018-03-31T20:26:37.005Z,98938.77
2018-03-31T20:29:04.674Z,98931.16
2018-03-31T20:31:32.342Z,98930.48
2018-03-31T20:33:59.973Z,98929.64
2018-03-31T20:36:27.642Z,98904.63
2018-03-31T20:38:55.319Z,98884.09
2018-03-31T20:41:22.948Z,98887.59
2018-03-31T20:43:50.613Z,98881.23
2018-03-31T20:46:18.292Z,98895.63
2018-03-31T20:48:45.966Z,98897.41
2018-03-31T20:51:13.666Z,98899.97
2018-03-31T20:53:41.307Z,98903.77
2018-03-31T20:56:08.991Z,98880.55
2018-03-31T20:58:36.630Z,98879.17
2018-03-31T21:01:04.267Z,98876.59
2018-03-31T21:03:31.931Z,98898.62
2018-03-31T21:05:59.568Z,98883.79
2018-03-31T21:08:27.202Z,98878.75
2018-03-31T21:10:54.835Z,98861.78
2018-03-31T21:13:22.503Z,98882.16
2018-03-31T21:15:50.206Z,98870.05
2018-03-31T21:18:17.851Z,98881.05
2018-03-31T21:20:45.526Z,98851.85
2018-03-31T21:23:13.208Z,98862.02
2018-03-31T21:25:40.842Z,98845.30
2018-03-31T21:28:08.509Z,98868.13
2018-03-31T21:30:36.178Z,98860.13
2018-03-31T21:33:03.843Z,98832.68
2018-03-31T21:35:31.548Z,98840.83
2018-03-31T21:37:59.242Z,98829.16
2018-03-31T21:40:26.910Z,98785.92
2018-03-31T21:42:54.541Z,98793.69
2018-03-31T21:45:22.217Z,98825.17
2018-03-31T21:47:49.851Z,98814.99
2018-03-31T21:50:17.523Z,98817.45
2018-03-31T21:52:45.166Z,98800.72
2018-03-31T21:55:12.838Z,98818.26
2018-03-31T21:57:40.484Z,98820.55
2018-03-31T22:00:08.162Z,98796.22
2018-03-31T22:02:35.791Z,98787.00
2018-03-31T22:05:03.476Z,98785.79
2018-03-31T22:07:31.150Z,98770.28
2018-03-31T22:09:58.818Z,98773.28
2018-03-31T22:12:26.479Z,98765.94
2018-03-31T22:14:59.561Z,98759.83
2018-03-31T22:17:27.190Z,98736.03
2018-03-31T22:19:54.870Z,98728.84
2018-03-31T22:22:22.512Z,98723.80
2018-03-31T22:24:50.142Z,98727.58
2018-03-31T22:27:17.822Z,98713.98
2018-03-31T22:29:45.463Z,98716.44
2018-03-31T22:32:13.106Z,98725.67
2018-03-31T22:34:40.776Z,98715.22
2018-03-31T22:37:08.405Z,98723.08
2018-03-31T22:39:36.070Z,98708.95
2018-03-31T22:42:03.749Z,98702.55
2018-03-31T22:44:31.377Z,98693.11
2018-03-31T22:46:59.052Z,98680.75
2018-03-31T22:49:26.677Z,98670.45
2018-03-31T22:51:54.322Z,98659.70
2018-03-31T22:54:21.990Z,98650.78
2018-03-31T22:56:49.609Z,98628.79
2018-03-31T22:59:17.270Z,98648.99
2018-03-31T23:01:44.904Z,98652.11
2018-03-31T23:04:12.853Z,98650.88
2018-03-31T23:06:40.778Z,98677.75
2018-03-31T23:09:08.733Z,98688.06
2018-03-31T23:11:36.650Z,98667.85
2018-03-31T23:14:04.636Z,98658.85
2018-03-31T23:16:32.581Z,98630.20
2018-03-31T23:19:00.537Z,98627.80
2018-03-31T23:21:28.510Z,98608.80
2018-03-31T23:23:56.434Z,98613.97
2018-03-31T23:26:24.405Z,98632.81
2018-03-31T23:28:52.321Z,98613.13
2018-03-31T23:31:20.238Z,98602.72
2018-03-31T23:33:48.186Z,98590.45
2018-03-31T23:36:16.149Z,98607.38
2018-03-31T23:38:43.809Z,98593.00
2018-03-31T23:41:11.481Z,98572.14
2018-03-31T23:43:39.146Z,98590.66
2018-03-31T23:46:06.832Z,98539.01
2018-03-31T23:48:34.478Z,98563.98
2018-03-31T23:51:02.150Z,98537.52
2018-03-31T23:53:29.826Z,98536.13
2018-03-31T23:55:57.462Z,98531.77
2018-03-31T23:58:25.139Z,98519.03
